Terminal Aerodrome Forecast
Issued by NWS Missoula, MT

Home | Current Version | Previous Version | Text Only | Print | Product List | Glossary On
Versions: 1 2 3 4 5 6 7 8 9 10 11 12 13
000
FTUS45 KMSO 041137
TAFMSO
TAF
KMSO 041137Z 0412/0512 34005KT P6SM SKC
     FM042000 30011G22KT P6SM FEW100
     FM050300 VRB06KT P6SM FEW100=

USA.gov is the U.S. government's official web portal to all federal, state and local government web resources and services.